Terminal Aerodrome Forecast
Issued by NWS

Home | Current Version | Previous Version | Text Only | Print | Product List | Glossary On
Versions: 1 2 3 4 5 6 7 8 9 10 11 12 13 14
377
FTUS46 KSEW 241720
TAFBFI
TAF
KBFI 241720Z 2418/2518 27004KT P6SM FEW020 BKN045 OVC070
     FM241900 23005KT P6SM BKN045 BKN070
     FM242200 25006KT P6SM SCT045
     FM250100 36005KT P6SM SCT045
     FM251200 21006KT P6SM BKN025 OVC040=

USA.gov is the U.S. government's official web portal to all federal, state and local government web resources and services.